Time;durP1;ratioP1;P1;durP2;ratioP2;P2;SDS_P1;SDS_P2;PMS_P1;PMS_P2;Temp;Humidity;BMP_temperature;BMP_pressure;BME280_temperature;BME280_humidity;BME280_pressure;Samples;Min_cycle;Max_cycle;Signal;HPM_P1;HPM_P2
2022/01/27 00:05:15;;;;;;;;;54.50;44.50;;;;;-146.25;100.00;57879.81;5036596;28;45291;-73
2022/01/27 00:07:41;;;;;;;;;58.75;47.00;;;;;-146.25;100.00;57879.81;5036487;28;45512;-73
2022/01/27 00:12:45;;;;;;;;;52.25;43.50;;;;;-146.25;100.00;57879.81;5036654;28;45276;-73
2022/01/27 00:15:13;;;;;;;;;55.75;43.50;;;;;-146.25;100.00;57879.81;5036392;28;45435;-73
2022/01/27 00:17:45;;;;;;;;;55.50;42.25;;;;;-146.25;100.00;57879.81;5036690;28;45249;-73
2022/01/27 00:20:12;;;;;;;;;50.75;44.00;;;;;-146.25;100.00;57879.81;5036578;28;45296;-73
2022/01/27 00:22:38;;;;;;;;;47.25;42.50;;;;;-146.25;100.00;57879.81;5038132;28;45223;-73
2022/01/27 00:25:06;;;;;;;;;46.00;41.50;;;;;-146.25;100.00;57879.81;5040193;28;45925;-73
2022/01/27 00:27:32;;;;;;;;;56.00;45.00;;;;;-146.25;100.00;57879.81;5040301;28;45221;-73
2022/01/27 00:30:03;;;;;;;;;45.00;40.00;;;;;-146.25;100.00;57879.81;5039822;28;45244;-73
2022/01/27 00:32:29;;;;;;;;;50.25;41.50;;;;;-146.25;100.00;57879.81;5040206;28;45330;-73
2022/01/27 00:34:54;;;;;;;;;45.00;39.00;;;;;-146.25;100.00;57879.81;5038309;28;46169;-73
2022/01/27 00:37:20;;;;;;;;;45.75;42.00;;;;;-146.25;100.00;57879.81;5039842;28;45283;-72
2022/01/27 00:39:45;;;;;;;;;39.75;39.75;;;;;-146.25;100.00;57879.81;5039952;28;45433;-73
2022/01/27 00:42:11;;;;;;;;;54.50;43.75;;;;;-146.25;100.00;57879.81;5039903;28;45347;-73
2022/01/27 00:44:36;;;;;;;;;55.50;43.75;;;;;-146.25;100.00;57879.81;5039417;28;45418;-72
2022/01/27 00:47:02;;;;;;;;;54.75;43.25;;;;;-146.25;100.00;57879.81;5039869;28;45350;-73
2022/01/27 00:49:28;;;;;;;;;58.00;45.00;;;;;-146.25;100.00;57879.81;5039725;28;45482;-73
2022/01/27 00:51:54;;;;;;;;;48.00;43.00;;;;;-146.25;100.00;57879.81;5039722;28;45344;-73
2022/01/27 00:54:23;;;;;;;;;48.00;42.75;;;;;-146.25;100.00;57879.81;5039490;28;46267;-72
2022/01/27 01:02:27;;;;;;;;;52.50;44.50;;;;;-146.25;100.00;57879.81;5039645;28;45564;-72
2022/01/27 01:04:46;;;;;;;;;53.75;43.00;;;;;-146.25;100.00;57879.81;5038950;28;46056;-73
2022/01/27 01:07:13;;;;;;;;;52.25;45.00;;;;;-146.25;100.00;57879.81;5039524;28;45385;-72
2022/01/27 01:10:26;;;;;;;;;53.00;44.00;;;;;-146.25;100.00;57879.81;5039190;28;45397;-73
2022/01/27 01:14:58;;;;;;;;;52.25;43.50;;;;;-146.25;100.00;57879.81;5039092;28;45403;-72
2022/01/27 01:17:32;;;;;;;;;46.00;42.75;;;;;-146.25;100.00;57879.81;5039005;28;45464;-72
2022/01/27 01:30:50;;;;;;;;;47.00;43.50;;;;;-146.25;100.00;57879.81;5038863;28;45322;-72
2022/01/27 01:33:22;;;;;;;;;59.00;45.00;;;;;-146.25;100.00;57879.81;5038870;28;45544;-72
2022/01/27 01:35:50;;;;;;;;;59.00;45.00;;;;;-146.25;100.00;57879.81;5038992;28;46493;-72
2022/01/27 01:38:25;;;;;;;;;51.00;43.25;;;;;-146.25;100.00;57879.81;5038879;28;45304;-72
2022/01/27 01:40:53;;;;;;;;;51.25;43.25;;;;;-146.25;100.00;57879.81;5038755;28;45413;-72
2022/01/27 01:43:20;;;;;;;;;62.25;44.75;;;;;-146.25;100.00;57879.81;5039082;28;45354;-72
2022/01/27 01:45:46;;;;;;;;;48.50;42.75;;;;;-146.25;100.00;57879.81;5038724;28;45440;-72
2022/01/27 01:48:14;;;;;;;;;55.75;47.25;;;;;-146.25;100.00;57879.81;5038781;28;45378;-72
2022/01/27 01:50:40;;;;;;;;;52.75;41.25;;;;;-146.25;100.00;57879.81;5038809;28;45358;-72
2022/01/27 01:53:06;;;;;;;;;50.50;43.25;;;;;-146.25;100.00;57879.81;5039314;28;45302;-72
2022/01/27 01:55:32;;;;;;;;;51.25;43.25;;;;;-146.25;100.00;57879.81;5038575;28;45482;-73
2022/01/27 01:57:59;;;;;;;;;51.50;45.00;;;;;-146.25;100.00;57879.81;5038434;28;45532;-73
2022/01/27 02:00:26;;;;;;;;;42.25;40.50;;;;;-146.25;100.00;57879.81;5038724;28;45366;-72
2022/01/27 02:02:52;;;;;;;;;51.00;44.25;;;;;-146.25;100.00;57879.81;5038800;28;45527;-72
2022/01/27 02:05:21;;;;;;;;;55.25;41.50;;;;;-146.25;100.00;57879.81;5038334;28;46229;-72
2022/01/27 02:08:29;;;;;;;;;55.50;46.75;;;;;-146.25;100.00;57879.81;5038369;28;45475;-72
2022/01/27 02:19:18;;;;;;;;;54.50;47.25;;;;;-146.25;100.00;57879.81;5038239;28;45284;-72
2022/01/27 02:21:50;;;;;;;;;54.50;45.50;;;;;-146.25;100.00;57879.81;5038259;28;45346;-72
2022/01/27 02:24:17;;;;;;;;;43.25;39.50;;;;;-146.25;100.00;57879.81;5038483;28;45366;-72
2022/01/27 02:26:43;;;;;;;;;48.50;41.00;;;;;-146.25;100.00;57879.81;5037995;28;45540;-72
2022/01/27 02:29:09;;;;;;;;;57.00;45.50;;;;;-146.25;100.00;57879.81;5038347;28;45473;-72
2022/01/27 02:31:35;;;;;;;;;61.25;46.25;;;;;-146.25;100.00;57879.81;5038128;28;45520;-73
2022/01/27 02:34:01;;;;;;;;;50.50;45.50;;;;;-146.25;100.00;57879.81;5038126;28;45247;-72
2022/01/27 02:36:28;;;;;;;;;62.25;51.75;;;;;-146.25;100.00;57879.81;5037793;28;45553;-72
2022/01/27 02:38:55;;;;;;;;;46.50;43.00;;;;;-146.25;100.00;57879.81;5037942;28;45386;-72
2022/01/27 02:41:22;;;;;;;;;58.00;46.75;;;;;-146.25;100.00;57879.81;5037985;28;45430;-72
2022/01/27 02:43:48;;;;;;;;;54.25;44.00;;;;;-146.25;100.00;57879.81;5038314;28;45413;-72
2022/01/27 02:46:22;;;;;;;;;50.25;43.25;;;;;-146.25;100.00;57879.81;5036873;28;46156;-72
2022/01/27 02:48:47;;;;;;;;;51.25;43.25;;;;;-146.25;100.00;57879.81;5038000;28;45401;-72
2022/01/27 02:51:13;;;;;;;;;56.00;45.50;;;;;-146.25;100.00;57879.81;5037752;28;45521;-72
2022/01/27 02:53:39;;;;;;;;;45.50;42.50;;;;;-146.25;100.00;57879.81;5038196;28;45486;-72
2022/01/27 02:56:04;;;;;;;;;53.00;44.25;;;;;-146.25;100.00;57879.81;5037646;28;45468;-72
2022/01/27 02:58:30;;;;;;;;;71.75;56.50;;;;;-146.25;100.00;57879.81;5037729;28;45205;-71
2022/01/27 03:00:56;;;;;;;;;59.00;48.75;;;;;-146.25;100.00;57879.81;5037701;28;45232;-72
2022/01/27 03:03:21;;;;;;;;;25.50;20.00;;;;;-146.25;100.00;57879.81;5037817;28;45479;-72
2022/01/27 03:05:47;;;;;;;;;53.75;44.25;;;;;-146.25;100.00;57879.81;5037316;28;46083;-72
2022/01/27 03:08:13;;;;;;;;;64.50;53.50;;;;;-146.25;100.00;57879.81;5037649;28;45488;-72
2022/01/27 03:10:45;;;;;;;;;59.25;49.75;;;;;-146.25;100.00;57879.81;5038047;28;45207;-72
2022/01/27 03:13:10;;;;;;;;;58.75;48.75;;;;;-146.25;100.00;57879.81;5038069;28;45325;-72
2022/01/27 03:15:36;;;;;;;;;61.25;48.00;;;;;-146.25;100.00;57879.81;5037221;28;46046;-72
2022/01/27 03:18:02;;;;;;;;;60.50;48.00;;;;;-146.25;100.00;57879.81;5037285;28;45342;-72
2022/01/27 03:20:32;;;;;;;;;61.00;51.25;;;;;-146.25;100.00;57879.81;5037457;28;45218;-72
2022/01/27 03:23:02;;;;;;;;;61.25;49.00;;;;;-146.25;100.00;57879.81;5037449;28;45444;-73
2022/01/27 03:25:28;;;;;;;;;62.00;48.50;;;;;-146.25;100.00;57879.81;5036905;28;45477;-72
2022/01/27 03:27:54;;;;;;;;;55.00;44.00;;;;;-146.25;100.00;57879.81;5035682;28;45488;-73
2022/01/27 03:30:20;;;;;;;;;64.75;50.25;;;;;-146.25;100.00;57879.81;5037217;28;45646;-73
2022/01/27 03:32:46;;;;;;;;;59.50;47.75;;;;;-146.25;100.00;57879.81;5037383;28;45310;-73
2022/01/27 03:35:11;;;;;;;;;48.50;43.75;;;;;-146.25;100.00;57879.81;5036940;28;46094;-72
2022/01/27 03:37:37;;;;;;;;;55.50;45.50;;;;;-146.25;100.00;57879.81;5036738;28;45552;-73
2022/01/27 03:40:04;;;;;;;;;56.25;45.25;;;;;-146.25;100.00;57879.81;5037017;28;45440;-73
2022/01/27 03:42:30;;;;;;;;;52.00;43.75;;;;;-146.25;100.00;57879.81;5037353;28;45394;-72
2022/01/27 03:44:56;;;;;;;;;65.50;51.00;;;;;-146.25;100.00;57879.81;5036918;28;46118;-72
2022/01/27 03:47:21;;;;;;;;;61.25;48.25;;;;;-146.25;100.00;57879.81;5036922;28;46095;-73
2022/01/27 03:49:47;;;;;;;;;51.50;44.25;;;;;-146.25;100.00;57879.81;5037065;28;45302;-72
2022/01/27 03:52:12;;;;;;;;;55.00;47.00;;;;;-146.25;100.00;57879.81;5037364;28;45629;-73
2022/01/27 03:54:38;;;;;;;;;56.00;42.50;;;;;-146.25;100.00;57879.81;5036831;28;45290;-72
2022/01/27 03:57:03;;;;;;;;;52.25;44.25;;;;;-146.25;100.00;57879.81;5038752;28;45503;-72
2022/01/27 03:59:29;;;;;;;;;45.00;40.75;;;;;-146.25;100.00;57879.81;5040527;28;45347;-72
2022/01/27 04:01:55;;;;;;;;;61.00;45.00;;;;;-146.25;100.00;57879.81;5040748;28;45168;-72
2022/01/27 04:04:21;;;;;;;;;50.75;43.00;;;;;-146.25;100.00;57879.81;5040211;28;45351;-73
2022/01/27 04:06:50;;;;;;;;;55.00;45.50;;;;;-146.25;100.00;57879.81;5040562;28;45754;-73
2022/01/27 04:09:16;;;;;;;;;55.50;45.75;;;;;-146.25;100.00;57879.81;5040657;28;45216;-72
2022/01/27 04:11:42;;;;;;;;;65.50;50.00;;;;;-146.25;100.00;57879.81;5040411;28;45248;-72
2022/01/27 04:14:08;;;;;;;;;49.75;43.75;;;;;-146.25;100.00;57879.81;5039967;28;45449;-73
2022/01/27 04:16:34;;;;;;;;;58.50;45.25;;;;;-146.25;100.00;57879.81;5039946;28;46044;-72
2022/01/27 04:19:00;;;;;;;;;51.50;45.25;;;;;-146.25;100.00;57879.81;5039918;28;45278;-73
2022/01/27 04:21:25;;;;;;;;;54.25;45.00;;;;;-146.25;100.00;57879.81;5040027;28;45480;-72
2022/01/27 04:23:51;;;;;;;;;52.25;44.50;;;;;-146.25;100.00;57879.81;5039833;28;45488;-72
2022/01/27 04:26:22;;;;;;;;;53.25;43.75;;;;;-146.25;100.00;57879.81;5040286;28;45306;-73
2022/01/27 04:28:50;;;;;;;;;51.75;44.25;;;;;-146.25;100.00;57879.81;5040483;28;45638;-73
2022/01/27 04:31:16;;;;;;;;;48.50;42.00;;;;;-146.25;100.00;57879.81;5040481;28;45290;-72
2022/01/27 04:33:41;;;;;;;;;49.00;42.50;;;;;-146.25;100.00;57879.81;5039615;28;46212;-72
2022/01/27 04:36:16;;;;;;;;;62.25;48.50;;;;;-146.25;100.00;57879.81;5039686;28;45413;-72
2022/01/27 04:38:50;;;;;;;;;36.75;33.00;;;;;-146.25;100.00;57879.81;5039752;28;45438;-72
2022/01/27 04:43:51;;;;;;;;;48.75;44.25;;;;;-146.25;100.00;57879.81;5039515;28;45870;-72
2022/01/27 04:46:39;;;;;;;;;47.25;43.75;;;;;-146.25;100.00;57879.81;5039875;28;45483;-72
2022/01/27 04:49:07;;;;;;;;;61.25;48.25;;;;;-146.25;100.00;57879.81;5039662;28;45298;-72
2022/01/27 04:51:32;;;;;;;;;102.00;74.33;;;;;-146.25;100.00;57879.81;5039728;28;45334;-73
2022/01/27 04:56:25;;;;;;;;;51.75;42.50;;;;;-146.25;100.00;57879.81;5039409;28;46158;-73
2022/01/27 04:58:57;;;;;;;;;52.75;44.50;;;;;-146.25;100.00;57879.81;5039602;28;45496;-73
2022/01/27 05:01:30;;;;;;;;;53.25;42.00;;;;;-146.25;100.00;57879.81;5039686;28;45507;-72
2022/01/27 05:04:33;;;;;;;;;45.00;38.50;;;;;-146.25;100.00;57879.81;5039399;28;46081;-73
2022/01/27 05:06:51;;;;;;;;;45.75;42.00;;;;;-146.25;100.00;57879.81;5038527;28;45330;-72
2022/01/27 05:09:17;;;;;;;;;47.75;42.00;;;;;-146.25;100.00;57879.81;5038839;28;45360;-72
2022/01/27 05:11:53;;;;;;;;;52.50;43.75;;;;;-146.25;100.00;57879.81;5039379;28;45226;-72
2022/01/27 05:14:23;;;;;;;;;48.50;42.00;;;;;-146.25;100.00;57879.81;5039414;28;46101;-72
2022/01/27 05:16:49;;;;;;;;;48.75;42.00;;;;;-146.25;100.00;57879.81;5039492;28;45386;-72
2022/01/27 05:19:14;;;;;;;;;63.75;47.75;;;;;-146.25;100.00;57879.81;5039273;28;45291;-72
2022/01/27 05:21:41;;;;;;;;;46.75;43.50;;;;;-146.25;100.00;57879.81;5039433;28;45485;-72
2022/01/27 05:24:08;;;;;;;;;50.25;43.75;;;;;-146.25;100.00;57879.81;5039087;28;45488;-72
2022/01/27 05:26:34;;;;;;;;;60.75;45.75;;;;;-146.25;100.00;57879.81;5037606;28;45851;-73
2022/01/27 05:29:02;;;;;;;;;54.00;44.75;;;;;-146.25;100.00;57879.81;5039029;28;45540;-72
2022/01/27 05:31:28;;;;;;;;;56.00;47.75;;;;;-146.25;100.00;57879.81;5039094;28;45512;-72
2022/01/27 05:33:53;;;;;;;;;52.50;46.50;;;;;-146.25;100.00;57879.81;5038753;28;46098;-72
2022/01/27 05:36:20;;;;;;;;;54.75;47.75;;;;;-146.25;100.00;57879.81;5029730;28;45391;-73
2022/01/27 05:38:45;;;;;;;;;53.00;45.25;;;;;-146.25;100.00;57879.81;5018766;28;45525;-73
2022/01/27 05:41:13;;;;;;;;;55.25;47.25;;;;;-146.25;100.00;57879.81;5018809;28;45546;-72
2022/01/27 05:43:38;;;;;;;;;65.00;54.00;;;;;-146.25;100.00;57879.81;5018545;28;45666;-72
2022/01/27 05:46:04;;;;;;;;;74.50;57.00;;;;;-146.25;100.00;57879.81;5018843;28;45223;-72
2022/01/27 05:48:30;;;;;;;;;66.25;53.00;;;;;-146.25;100.00;57879.81;5018882;28;45285;-73
2022/01/27 05:50:56;;;;;;;;;49.25;44.00;;;;;-146.25;100.00;57879.81;5017389;28;45657;-73
2022/01/27 05:53:23;;;;;;;;;51.50;42.25;;;;;-146.25;100.00;57879.81;5018800;28;45465;-72
2022/01/27 05:55:49;;;;;;;;;54.00;45.75;;;;;-146.25;100.00;57879.81;5018881;28;45425;-73
2022/01/27 05:58:15;;;;;;;;;56.00;44.25;;;;;-146.25;100.00;57879.81;5018459;28;45323;-72
2022/01/27 06:00:41;;;;;;;;;71.00;54.00;;;;;-146.25;100.00;57879.81;5018696;28;45860;-73
2022/01/27 06:03:06;;;;;;;;;81.67;61.33;;;;;-146.25;100.00;57879.81;5018203;28;45808;-73
2022/01/27 06:05:33;;;;;;;;;76.67;58.67;;;;;-146.25;100.00;57879.81;5018288;28;45194;-73
2022/01/27 06:07:59;;;;;;;;;65.50;53.50;;;;;-146.25;100.00;57879.81;5018494;28;45798;-72
2022/01/27 06:10:25;;;;;;;;;60.00;49.25;;;;;-146.25;100.00;57879.81;5018407;28;45505;-73
2022/01/27 06:12:53;;;;;;;;;61.25;49.50;;;;;-146.25;100.00;57879.81;5018494;28;45481;-72
2022/01/27 06:15:20;;;;;;;;;55.25;48.00;;;;;-146.25;100.00;57879.81;5018429;28;45438;-73
2022/01/27 06:17:47;;;;;;;;;65.25;51.50;;;;;-146.25;100.00;57879.81;5018290;28;45462;-73
2022/01/27 06:20:13;;;;;;;;;58.75;49.00;;;;;-146.25;100.00;57879.81;5018386;28;45478;-73
2022/01/27 06:22:39;;;;;;;;;53.00;44.00;;;;;-146.25;100.00;57879.81;5018445;28;45695;-73
2022/01/27 06:25:06;;;;;;;;;47.25;42.00;;;;;-146.25;100.00;57879.81;5018093;28;45205;-72
2022/01/27 06:27:31;;;;;;;;;61.00;51.00;;;;;-146.25;100.00;57879.81;5018405;28;45383;-73
2022/01/27 06:29:57;;;;;;;;;57.25;46.00;;;;;-146.25;100.00;57879.81;5018440;28;45489;-73
2022/01/27 06:32:22;;;;;;;;;56.25;48.75;;;;;-146.25;100.00;57879.81;5018153;28;45917;-73
2022/01/27 06:34:48;;;;;;;;;51.25;45.50;;;;;-146.25;100.00;57879.81;5017996;28;45518;-73
2022/01/27 06:37:14;;;;;;;;;52.25;44.50;;;;;-146.25;100.00;57879.81;5018127;28;46145;-72
2022/01/27 06:39:39;;;;;;;;;61.00;46.75;;;;;-146.25;100.00;57879.81;5018105;28;45347;-72
2022/01/27 06:42:07;;;;;;;;;60.50;49.25;;;;;-146.25;100.00;57879.81;5017678;28;45469;-73
2022/01/27 06:44:33;;;;;;;;;61.00;47.25;;;;;-146.25;100.00;57879.81;5017742;28;45240;-73
2022/01/27 06:46:59;;;;;;;;;54.00;47.75;;;;;-146.25;100.00;57879.81;5017792;28;45393;-73
2022/01/27 06:49:24;;;;;;;;;42.50;35.50;;;;;-146.25;100.00;57879.81;5018254;28;45370;-73
2022/01/27 06:51:50;;;;;;;;;55.00;48.00;;;;;-146.25;100.00;57879.81;5017556;28;46036;-73
2022/01/27 06:54:17;;;;;;;;;62.50;50.25;;;;;-146.25;100.00;57879.81;5017719;28;45513;-73
2022/01/27 06:56:43;;;;;;;;;48.50;42.75;;;;;-146.25;100.00;57879.81;5016266;28;45571;-73
2022/01/27 06:59:08;;;;;;;;;61.50;48.00;;;;;-146.25;100.00;57879.81;5017780;28;45474;-73
2022/01/27 07:01:34;;;;;;;;;60.75;51.50;;;;;-146.25;100.00;57879.81;5017454;28;45591;-72
2022/01/27 07:04:01;;;;;;;;;85.00;66.33;;;;;-146.25;100.00;57879.81;5017460;28;45435;-72
2022/01/27 07:06:26;;;;;;;;;73.75;59.00;;;;;-146.25;100.00;57879.81;5017999;28;45370;-74
2022/01/27 07:08:52;;;;;;;;;74.75;58.50;;;;;-146.25;100.00;57879.81;5017995;28;45406;-72
2022/01/27 07:11:17;;;;;;;;;72.25;56.00;;;;;-146.25;100.00;57879.81;5017185;28;45504;-74
2022/01/27 07:13:44;;;;;;;;;73.50;56.00;;;;;-146.25;100.00;57879.81;5017362;28;45481;-75
2022/01/27 07:16:10;;;;;;;;;82.00;66.33;;;;;-146.25;100.00;57879.81;5017473;28;45267;-75
2022/01/27 07:18:36;;;;;;;;;67.00;54.50;;;;;-146.25;100.00;57879.81;5017525;28;45374;-74
2022/01/27 07:21:03;;;;;;;;;70.25;56.25;;;;;-146.25;100.00;57879.81;5017273;28;46148;-72
2022/01/27 07:23:29;;;;;;;;;79.00;62.67;;;;;-146.25;100.00;57879.81;5016797;28;45752;-72
2022/01/27 07:25:55;;;;;;;;;106.33;79.33;;;;;-146.25;100.00;57879.81;5023166;28;45402;-72
2022/01/27 07:28:20;;;;;;;;;109.33;86.33;;;;;-146.25;100.00;57879.81;5026781;28;45439;-72
2022/01/27 07:30:46;;;;;;;;;59.00;47.75;;;;;-146.25;100.00;57879.81;5026047;28;46068;-72
2022/01/27 07:33:11;;;;;;;;;57.25;47.00;;;;;-146.25;100.00;57879.81;5025162;28;45331;-72
2022/01/27 07:35:37;;;;;;;;;68.50;56.25;;;;;-146.25;100.00;57879.81;5026873;28;45310;-72
2022/01/27 07:38:04;;;;;;;;;63.00;51.25;;;;;-146.25;100.00;57879.81;5026403;28;45473;-73
2022/01/27 07:40:30;;;;;;;;;56.75;48.75;;;;;-146.25;100.00;57879.81;5024865;28;45591;-72
2022/01/27 07:42:55;;;;;;;;;64.25;51.50;;;;;-146.25;100.00;57879.81;5027039;28;45508;-72
2022/01/27 07:45:21;;;;;;;;;74.25;60.00;;;;;-146.25;100.00;57879.81;5025977;28;45309;-72
2022/01/27 07:47:46;;;;;;;;;105.33;84.33;;;;;-146.25;100.00;57879.81;5025681;28;45435;-72
2022/01/27 07:50:12;;;;;;;;;106.67;89.33;;;;;-146.25;100.00;57879.81;5026900;28;45994;-72
2022/01/27 07:52:38;;;;;;;;;88.67;66.67;;;;;-146.25;100.00;57879.81;5025394;28;45378;-72
2022/01/27 07:55:04;;;;;;;;;78.00;62.00;;;;;-146.25;100.00;57879.81;5026093;28;45341;-72
2022/01/27 07:57:29;;;;;;;;;103.67;79.33;;;;;-146.25;100.00;57879.81;5027607;28;46136;-72
2022/01/27 07:59:55;;;;;;;;;70.75;55.75;;;;;-146.25;100.00;57879.81;5025230;28;46178;-72
2022/01/27 08:02:20;;;;;;;;;101.33;79.67;;;;;-146.25;100.00;57879.81;5026236;28;45489;-73
2022/01/27 08:04:46;;;;;;;;;100.33;83.33;;;;;-146.25;100.00;57879.81;5025465;28;45551;-73
2022/01/27 08:07:13;;;;;;;;;68.00;54.25;;;;;-146.25;100.00;57879.81;5025086;28;45413;-72
2022/01/27 08:09:39;;;;;;;;;68.25;53.00;;;;;-146.25;100.00;57879.81;5021995;28;46048;-72
2022/01/27 08:12:05;;;;;;;;;76.50;61.00;;;;;-146.25;100.00;57879.81;5036429;28;45435;-72
2022/01/27 08:14:31;;;;;;;;;69.75;56.25;;;;;-146.25;100.00;57879.81;5036557;28;45330;-73
2022/01/27 08:16:57;;;;;;;;;62.25;50.50;;;;;-146.25;100.00;57879.81;5036921;28;45539;-72
2022/01/27 08:19:22;;;;;;;;;54.25;45.50;;;;;-146.25;100.00;57879.81;5025946;28;46142;-72
2022/01/27 08:21:48;;;;;;;;;62.75;49.00;;;;;-146.25;100.00;57879.81;5016533;28;45569;-72
2022/01/27 08:24:15;;;;;;;;;67.00;53.25;;;;;-146.25;100.00;57879.81;5018713;28;45505;-72
2022/01/27 08:26:45;;;;;;;;;76.75;60.00;;;;;-146.25;100.00;57879.81;5028261;28;45545;-76
2022/01/27 08:29:15;;;;;;;;;81.33;61.00;;;;;-146.25;100.00;57879.81;5028340;28;46101;-72
2022/01/27 08:31:53;;;;;;;;;90.67;69.00;;;;;-146.25;100.00;57879.81;5026651;28;45529;-72
2022/01/27 08:34:29;;;;;;;;;92.00;69.67;;;;;-146.25;100.00;57879.81;5027342;28;45316;-75
2022/01/27 08:36:55;;;;;;;;;105.33;86.33;;;;;-146.25;100.00;57879.81;5035308;28;45546;-75
2022/01/27 08:39:21;;;;;;;;;79.00;63.50;;;;;-146.25;100.00;57879.81;5034871;28;45511;-75
2022/01/27 08:41:46;;;;;;;;;69.75;54.25;;;;;-146.25;100.00;57879.81;5029214;28;45357;-75
2022/01/27 08:44:12;;;;;;;;;78.33;63.00;;;;;-146.25;100.00;57879.81;5027157;28;45400;-76
2022/01/27 08:46:37;;;;;;;;;92.67;71.33;;;;;-146.25;100.00;57879.81;5027215;28;45403;-75
2022/01/27 08:49:04;;;;;;;;;82.67;65.67;;;;;-146.25;100.00;57879.81;5028865;28;46442;-76
2022/01/27 08:51:30;;;;;;;;;55.50;47.25;;;;;-146.25;100.00;57879.81;5027992;28;45548;-75
2022/01/27 08:53:55;;;;;;;;;64.00;52.25;;;;;-146.25;100.00;57879.81;5027300;28;45584;-72
2022/01/27 08:56:22;;;;;;;;;66.75;54.50;;;;;-146.25;100.00;57879.81;5028945;28;45592;-73
2022/01/27 08:58:49;;;;;;;;;62.75;50.25;;;;;-146.25;100.00;57879.81;5027062;28;45579;-75
2022/01/27 09:01:15;;;;;;;;;61.00;49.25;;;;;-146.25;100.00;57879.81;5025665;28;45558;-76
2022/01/27 09:03:41;;;;;;;;;59.00;49.00;;;;;-146.25;100.00;57879.81;5028786;28;45506;-74
2022/01/27 09:06:07;;;;;;;;;57.50;49.00;;;;;-146.25;100.00;57879.81;5027472;28;45732;-71
2022/01/27 09:08:33;;;;;;;;;115.75;98.75;;;;;-146.25;100.00;57879.81;5027195;28;45441;-75
2022/01/27 09:10:59;;;;;;;;;63.00;50.50;;;;;-146.25;100.00;57879.81;5028690;28;45309;-73
2022/01/27 09:13:25;;;;;;;;;80.00;60.50;;;;;-146.25;100.00;57879.81;5021678;28;45843;-75
2022/01/27 09:15:50;;;;;;;;;85.00;76.67;;;;;-146.25;100.00;57879.81;5018531;28;45508;-77
2022/01/27 09:18:17;;;;;;;;;91.33;80.67;;;;;-146.25;100.00;57879.81;5017912;28;46058;-79
2022/01/27 09:20:44;;;;;;;;;73.00;59.67;;;;;-146.25;100.00;57879.81;5018233;28;45364;-76
2022/01/27 09:23:14;;;;;;;;;67.25;54.50;;;;;-146.25;100.00;57879.81;5018129;28;45540;-82
2022/01/27 09:26:02;;;;;;;;;68.50;54.00;;;;;-146.25;100.00;57879.81;5019146;28;45657;-78
2022/01/27 09:28:28;;;;;;;;;66.50;51.00;;;;;-146.25;100.00;57879.81;5033221;28;45806;-78
2022/01/27 09:30:53;;;;;;;;;64.75;52.00;;;;;-146.25;100.00;57879.81;5028230;28;45368;-73
2022/01/27 09:33:19;;;;;;;;;65.25;51.25;;;;;-146.25;100.00;57879.81;5027075;28;45376;-83
2022/01/27 09:35:45;;;;;;;;;61.75;49.25;;;;;-146.25;100.00;57879.81;5026566;28;45398;-77
2022/01/27 09:38:11;;;;;;;;;61.00;50.00;;;;;-146.25;100.00;57879.81;5036758;28;46121;-77
2022/01/27 09:40:38;;;;;;;;;60.75;49.75;;;;;-146.25;100.00;57879.81;5037678;28;46360;-78
2022/01/27 09:43:04;;;;;;;;;67.00;54.00;;;;;-146.25;100.00;57879.81;5037915;28;45425;-77
2022/01/27 09:45:35;;;;;;;;;74.25;57.25;;;;;-146.25;100.00;57879.81;5038021;28;45417;-75
2022/01/27 09:48:11;;;;;;;;;86.67;77.00;;;;;-146.25;100.00;57879.81;5032907;28;46538;-76
2022/01/27 09:53:10;;;;;;;;;69.00;52.75;;;;;-146.25;100.00;57879.81;5027637;28;45552;-73
2022/01/27 09:55:36;;;;;;;;;65.50;52.75;;;;;-146.25;100.00;57879.81;5025550;28;45493;-78
2022/01/27 09:58:03;;;;;;;;;57.25;47.75;;;;;-146.25;100.00;57879.81;5023803;28;45424;-74
2022/01/27 10:00:30;;;;;;;;;52.50;44.50;;;;;-146.25;100.00;57879.81;5018090;28;45364;-75
2022/01/27 10:03:08;;;;;;;;;54.75;46.25;;;;;-146.25;100.00;57879.81;5018577;28;45359;-74
2022/01/27 10:05:36;;;;;;;;;57.50;47.00;;;;;-146.25;100.00;57879.81;5026311;28;45561;-76
2022/01/27 10:08:18;;;;;;;;;60.75;48.75;;;;;-146.25;100.00;57879.81;5028187;28;46272;-78
2022/01/27 10:10:49;;;;;;;;;61.00;49.75;;;;;-146.25;100.00;57879.81;5028789;28;45545;-73
2022/01/27 10:13:35;;;;;;;;;70.75;55.25;;;;;-146.25;100.00;57879.81;5026225;28;45418;-75
2022/01/27 10:16:02;;;;;;;;;80.00;69.67;;;;;-146.25;100.00;57879.81;5038291;28;45437;-80
2022/01/27 10:18:35;;;;;;;;;104.33;98.00;;;;;-146.25;100.00;57879.81;5038398;28;45351;-76
2022/01/27 10:21:07;;;;;;;;;82.33;75.67;;;;;-146.25;100.00;57879.81;5038299;28;45438;-79
2022/01/27 10:23:39;;;;;;;;;56.50;45.75;;;;;-146.25;100.00;57879.81;5038175;28;45338;-79
2022/01/27 10:26:18;;;;;;;;;70.25;55.75;;;;;-146.25;100.00;57879.81;5038417;28;45330;-79
2022/01/27 10:29:04;;;;;;;;;78.00;66.50;;;;;-146.25;100.00;57879.81;5037954;28;46214;-79
2022/01/27 10:31:30;;;;;;;;;94.00;86.00;;;;;-146.25;100.00;57879.81;5038182;28;45575;-79
2022/01/27 10:34:02;;;;;;;;;134.75;121.25;;;;;-146.25;100.00;57879.81;5038124;28;45374;-79
2022/01/27 10:36:33;;;;;;;;;69.50;54.50;;;;;-146.25;100.00;57879.81;5037810;28;45435;-79
2022/01/27 10:39:02;;;;;;;;;62.75;49.50;;;;;-146.25;100.00;57879.81;5038142;28;45374;-79
2022/01/27 10:41:32;;;;;;;;;59.00;47.25;;;;;-146.25;100.00;57879.81;5037608;28;45473;-79
2022/01/27 10:44:12;;;;;;;;;67.50;53.50;;;;;-146.25;100.00;57879.81;5037830;28;45536;-79
2022/01/27 10:47:01;;;;;;;;;57.25;47.75;;;;;-146.25;100.00;57879.81;5037988;28;45555;-79
2022/01/27 10:49:33;;;;;;;;;55.25;45.50;;;;;-146.25;100.00;57879.81;5037638;28;45421;-79
2022/01/27 10:51:59;;;;;;;;;58.50;46.75;;;;;-146.25;100.00;57879.81;5037562;28;45399;-79
2022/01/27 10:54:38;;;;;;;;;57.75;46.50;;;;;-146.25;100.00;57879.81;5037950;28;45336;-81
2022/01/27 10:57:10;;;;;;;;;60.00;46.75;;;;;-146.25;100.00;57879.81;5038116;28;45343;-80
2022/01/27 10:59:37;;;;;;;;;62.75;51.75;;;;;-146.25;100.00;57879.81;5037445;28;45469;-79
2022/01/27 11:02:09;;;;;;;;;68.50;54.75;;;;;-146.25;100.00;57879.81;5037864;28;45442;-79
2022/01/27 11:04:39;;;;;;;;;72.75;56.00;;;;;-146.25;100.00;57879.81;5037893;28;45517;-79
2022/01/27 11:07:09;;;;;;;;;74.75;58.75;;;;;-146.25;100.00;57879.81;5036964;28;45493;-79
2022/01/27 11:09:37;;;;;;;;;73.25;57.00;;;;;-146.25;100.00;57879.81;5037457;28;45442;-79
2022/01/27 11:12:08;;;;;;;;;77.00;63.00;;;;;-146.25;100.00;57879.81;5037601;28;45291;-79
2022/01/27 11:14:35;;;;;;;;;79.25;71.75;;;;;-146.25;100.00;57879.81;5037708;28;45381;-79
2022/01/27 11:17:06;;;;;;;;;66.00;51.50;;;;;-146.25;100.00;57879.81;5038167;28;45267;-79
2022/01/27 11:22:05;;;;;;;;;65.75;51.75;;;;;-146.25;100.00;57879.81;5037326;28;45428;-82
2022/01/27 11:27:30;;;;;;;;;64.25;48.50;;;;;-146.25;100.00;57879.81;5037391;28;45357;-82
2022/01/27 11:30:22;;;;;;;;;55.50;44.50;;;;;-146.25;100.00;57879.81;5036863;28;46071;-82
2022/01/27 11:33:09;;;;;;;;;54.00;44.75;;;;;-146.25;100.00;57879.81;5036544;28;45394;-80
2022/01/27 11:35:35;;;;;;;;;55.25;43.50;;;;;-146.25;100.00;57879.81;5037490;28;45385;-79
2022/01/27 11:38:08;;;;;;;;;51.75;43.75;;;;;-146.25;100.00;57879.81;5038006;28;45314;-79
2022/01/27 11:40:39;;;;;;;;;54.00;44.00;;;;;-146.25;100.00;57879.81;5037804;28;45615;-79
2022/01/27 11:43:13;;;;;;;;;53.75;43.75;;;;;-146.25;100.00;57879.81;5037221;28;45283;-79
2022/01/27 11:45:46;;;;;;;;;52.00;41.50;;;;;-146.25;100.00;57879.81;5037132;28;45432;-79